createdAt,value
2022-10-24T00:05:03.932Z,1.25
2022-10-24T00:11:14.807Z,1.17
2022-10-24T00:17:24.307Z,1.60
2022-10-24T00:23:32.881Z,1.00
2022-10-24T00:29:41.700Z,1.05
2022-10-24T00:35:45.368Z,1.13
2022-10-24T00:41:54.162Z,1.35
2022-10-24T00:48:03.730Z,0.60
2022-10-24T00:54:10.990Z,0.80
2022-10-24T01:00:16.673Z,0.90
2022-10-24T01:06:30.410Z,0.95
2022-10-24T01:12:42.509Z,0.90
2022-10-24T01:19:05.218Z,0.70
2022-10-24T01:25:15.893Z,1.00
2022-10-24T01:31:26.792Z,0.93
2022-10-24T01:37:35.006Z,0.63
2022-10-24T01:43:41.795Z,0.88
2022-10-24T01:49:49.362Z,0.90
2022-10-24T01:55:52.907Z,0.95
2022-10-24T02:02:02.069Z,0.63
2022-10-24T02:08:09.905Z,1.00
2022-10-24T02:14:16.906Z,0.82
2022-10-24T02:20:29.411Z,0.85
2022-10-24T02:26:35.912Z,1.08
2022-10-24T02:32:45.591Z,1.20
2022-10-24T02:38:54.202Z,0.90
2022-10-24T02:45:08.536Z,1.15
2022-10-24T02:51:13.697Z,0.82
2022-10-24T02:57:17.393Z,1.40
2022-10-24T03:03:28.018Z,0.93
2022-10-24T03:09:32.009Z,0.90
2022-10-24T03:15:41.240Z,0.75
2022-10-24T03:21:46.356Z,0.90
2022-10-24T03:27:53.985Z,0.88
2022-10-24T03:33:57.614Z,0.82
2022-10-24T03:40:05.883Z,0.90
2022-10-24T03:46:10.820Z,0.57
2022-10-24T03:52:16.378Z,0.68
2022-10-24T03:58:23.486Z,0.73
2022-10-24T04:04:28.647Z,0.70
2022-10-24T04:10:32.415Z,0.95
2022-10-24T04:16:42.038Z,0.75
2022-10-24T04:22:46.329Z,0.73
2022-10-24T04:28:49.941Z,0.85
2022-10-24T04:34:57.451Z,0.90
2022-10-24T04:41:02.887Z,0.73
2022-10-24T04:47:08.151Z,1.10
2022-10-24T04:53:13.258Z,1.05
2022-10-24T04:59:16.642Z,1.23
2022-10-24T05:05:20.399Z,0.90
2022-10-24T05:11:25.124Z,1.00
2022-10-24T05:17:31.224Z,0.77
2022-10-24T05:23:44.153Z,0.80
2022-10-24T05:29:48.963Z,1.08
2022-10-24T05:35:52.335Z,0.82
2022-10-24T05:41:55.716Z,0.75
2022-10-24T05:48:00.852Z,2.00
2022-10-24T05:54:06.212Z,1.60
2022-10-24T06:00:10.980Z,1.25
2022-10-24T06:06:15.893Z,1.05
2022-10-24T06:12:21.270Z,1.25
2022-10-24T06:18:25.007Z,1.42
2022-10-24T06:24:30.063Z,1.80
2022-10-24T06:30:35.362Z,1.48
2022-10-24T06:36:38.840Z,1.20
2022-10-24T06:42:43.595Z,1.40
2022-10-24T06:48:47.131Z,0.90
2022-10-24T06:54:50.677Z,1.17
2022-10-24T07:00:55.496Z,0.77
2022-10-24T07:06:59.385Z,0.65
2022-10-24T07:13:02.798Z,1.10
2022-10-24T07:19:07.962Z,0.80
2022-10-24T07:25:11.710Z,0.90
2022-10-24T07:31:15.868Z,1.08
2022-10-24T07:37:22.586Z,1.23
2022-10-24T07:43:26.261Z,1.40
2022-10-24T07:49:31.537Z,1.20
2022-10-24T07:55:41.126Z,0.88
2022-10-24T08:01:44.827Z,0.70
2022-10-24T08:07:56.205Z,1.20
2022-10-24T08:14:13.297Z,0.90
2022-10-24T08:20:16.794Z,1.00
2022-10-24T08:26:22.202Z,0.57
2022-10-24T08:32:27.823Z,1.00
2022-10-24T08:38:31.543Z,0.73
2022-10-24T08:44:35.910Z,1.60
2022-10-24T08:50:43.763Z,1.48
2022-10-24T08:56:47.386Z,1.10
2022-10-24T09:02:53.258Z,1.00
2022-10-24T09:08:59.934Z,0.88
2022-10-24T09:15:05.854Z,1.20
2022-10-24T09:21:10.400Z,0.85
2022-10-24T09:27:17.546Z,1.27
2022-10-24T09:33:26.744Z,1.20
2022-10-24T09:39:32.517Z,0.95
2022-10-24T09:45:43.788Z,1.45
2022-10-24T09:51:48.800Z,0.63
2022-10-24T09:57:55.144Z,0.80
2022-10-24T10:04:08.861Z,1.15
2022-10-24T10:10:25.391Z,1.10
2022-10-24T10:16:31.099Z,1.05
2022-10-24T10:22:36.634Z,1.13
2022-10-24T10:28:44.103Z,0.95
2022-10-24T10:34:49.730Z,1.10
2022-10-24T10:40:59.955Z,0.88
2022-10-24T10:47:09.587Z,0.85
2022-10-24T10:53:23.354Z,0.95
2022-10-24T10:59:37.004Z,1.00
2022-10-24T11:05:49.063Z,0.90
2022-10-24T11:11:55.841Z,1.23
2022-10-24T11:18:08.414Z,0.77
2022-10-24T11:24:14.458Z,0.88
2022-10-24T11:30:19.353Z,0.80
2022-10-24T11:36:29.859Z,1.02
2022-10-24T11:42:37.360Z,0.88
2022-10-24T11:48:42.740Z,0.82
2022-10-24T11:54:53.605Z,0.60
2022-10-24T12:01:11.940Z,0.50
2022-10-24T12:07:30.604Z,0.95
2022-10-24T12:13:45.471Z,0.80
2022-10-24T12:19:51.349Z,0.80
2022-10-24T12:26:03.983Z,0.90
2022-10-24T12:32:26.232Z,0.80
2022-10-24T12:38:48.230Z,0.98
2022-10-24T12:44:53.513Z,0.93
2022-10-24T12:51:01.415Z,0.93
2022-10-24T12:57:24.983Z,0.93
2022-10-24T13:03:37.505Z,1.00
2022-10-24T13:09:48.637Z,1.10
2022-10-24T13:15:57.067Z,1.23
2022-10-24T13:22:02.320Z,0.85
2022-10-24T13:28:27.321Z,1.10
2022-10-24T13:34:39.296Z,1.00
2022-10-24T13:40:45.921Z,0.90
2022-10-24T13:46:54.490Z,0.80
2022-10-24T13:52:59.617Z,0.90
2022-10-24T13:59:05.042Z,0.90
2022-10-24T14:05:09.128Z,0.80
2022-10-24T14:11:17.503Z,0.90
2022-10-24T14:17:26.353Z,0.80
2022-10-24T14:23:31.139Z,1.25
2022-10-24T14:29:36.860Z,0.70
2022-10-24T14:35:43.274Z,1.08
2022-10-24T14:41:46.716Z,1.50
2022-10-24T14:47:52.905Z,0.73
2022-10-24T14:54:00.481Z,1.00
2022-10-24T15:00:13.561Z,0.90
2022-10-24T15:06:24.007Z,1.27
2022-10-24T15:12:35.595Z,0.70
2022-10-24T15:18:43.991Z,1.10
2022-10-24T15:24:52.420Z,1.15
2022-10-24T15:30:59.514Z,1.23
2022-10-24T15:37:04.182Z,1.60
2022-10-24T15:43:07.950Z,1.35
2022-10-24T15:49:12.894Z,1.00
2022-10-24T15:55:21.296Z,1.23
2022-10-24T16:01:28.823Z,0.90
2022-10-24T16:07:33.919Z,0.98
2022-10-24T16:13:37.648Z,1.10
2022-10-24T16:19:41.073Z,1.40
2022-10-24T16:25:46.418Z,1.00
2022-10-24T16:31:53.584Z,1.40
2022-10-24T16:37:58.043Z,1.40
2022-10-24T16:44:04.118Z,1.30
2022-10-24T16:50:08.163Z,1.00
2022-10-24T16:56:15.084Z,1.05
2022-10-24T17:02:20.332Z,3.15
2022-10-24T17:08:26.968Z,1.30
2022-10-24T17:14:30.822Z,1.38
2022-10-24T17:20:42.050Z,1.85
2022-10-24T17:26:45.662Z,1.48
2022-10-24T17:32:50.053Z,1.80
2022-10-24T17:38:58.582Z,0.90
2022-10-24T17:45:02.384Z,1.60
2022-10-24T17:51:05.937Z,1.25
2022-10-24T17:57:10.762Z,1.48
2022-10-24T18:03:14.583Z,1.60
2022-10-24T18:09:18.279Z,1.70
2022-10-24T18:15:23.124Z,2.65
2022-10-24T18:21:28.448Z,1.95
2022-10-24T18:27:31.931Z,2.05
2022-10-24T18:33:36.736Z,2.30
2022-10-24T18:39:40.238Z,1.73
2022-10-24T18:45:48.299Z,2.05
2022-10-24T18:51:56.325Z,1.80
2022-10-24T18:57:59.935Z,3.55
2022-10-24T19:04:06.339Z,4.05
2022-10-24T19:10:13.146Z,4.38
2022-10-24T19:16:18.603Z,4.13
2022-10-24T19:22:22.592Z,2.40
2022-10-24T19:28:27.381Z,1.60
2022-10-24T19:34:31.817Z,2.63
2022-10-24T19:40:35.394Z,1.50
2022-10-24T19:46:43.388Z,1.48
2022-10-24T19:52:46.872Z,1.60
2022-10-24T19:58:53.353Z,1.92
2022-10-24T20:05:00.104Z,1.63
2022-10-24T20:11:04.080Z,1.45
2022-10-24T20:17:08.121Z,1.50
2022-10-24T20:23:12.896Z,1.38
2022-10-24T20:29:16.980Z,1.10
2022-10-24T20:35:22.185Z,1.25
2022-10-24T20:41:27.046Z,1.40
2022-10-24T20:47:30.543Z,1.40
2022-10-24T20:53:34.190Z,1.25
2022-10-24T20:59:38.984Z,1.00
2022-10-24T21:05:42.628Z,0.90
2022-10-24T21:11:46.068Z,1.08
2022-10-24T21:17:50.767Z,1.20
2022-10-24T21:23:54.749Z,1.42
2022-10-24T21:30:00.542Z,1.50
2022-10-24T21:36:09.354Z,1.10
2022-10-24T21:42:12.836Z,0.88
2022-10-24T21:48:17.406Z,1.00
2022-10-24T21:54:23.588Z,1.15
2022-10-24T22:00:26.982Z,1.70
2022-10-24T22:06:31.309Z,1.17
2022-10-24T22:12:36.293Z,1.23
2022-10-24T22:18:40.253Z,1.35
2022-10-24T22:24:43.650Z,1.00
2022-10-24T22:30:49.122Z,1.50
2022-10-24T22:37:05.297Z,1.98
2022-10-24T22:43:08.969Z,1.50
2022-10-24T22:49:17.533Z,1.15
2022-10-24T22:55:23.937Z,1.55
2022-10-24T23:01:34.721Z,0.98
2022-10-24T23:07:47.721Z,1.90
2022-10-24T23:13:52.299Z,1.17
2022-10-24T23:19:56.666Z,1.38
2022-10-24T23:26:04.139Z,1.00
2022-10-24T23:32:08.107Z,1.40
2022-10-24T23:38:12.141Z,1.27
2022-10-24T23:44:17.510Z,1.20
2022-10-24T23:50:24.450Z,0.93
2022-10-24T23:56:28.680Z,1.23
